createdAt,value
2024-05-09T00:00:52.199Z,101696.44
2024-05-09T00:03:22.735Z,101695.63
2024-05-09T00:05:53.180Z,101696.59
2024-05-09T00:08:24.054Z,101700.16
2024-05-09T00:10:57.376Z,101695.00
2024-05-09T00:13:27.988Z,101690.69
2024-05-09T00:15:58.460Z,101692.47
2024-05-09T00:18:28.892Z,101693.41
2024-05-09T00:20:59.343Z,101696.09
2024-05-09T00:23:29.863Z,101686.53
2024-05-09T00:26:02.989Z,101696.22
2024-05-09T00:28:33.464Z,101685.72
2024-05-09T00:31:05.014Z,101697.13
2024-05-09T00:33:35.583Z,101698.03
2024-05-09T00:36:06.256Z,101698.03
2024-05-09T00:38:37.378Z,101690.16
2024-05-09T00:41:10.719Z,101686.69
2024-05-09T00:43:41.245Z,101698.09
2024-05-09T00:46:13.233Z,101690.25
2024-05-09T00:48:44.175Z,101691.16
2024-05-09T00:51:15.029Z,101693.81
2024-05-09T00:53:46.319Z,101693.00
2024-05-09T00:56:22.260Z,101686.94
2024-05-09T00:58:54.091Z,101685.19
2024-05-09T01:01:26.370Z,101685.22
2024-05-09T01:03:57.229Z,101689.63
2024-05-09T01:06:27.752Z,101683.53
2024-05-09T01:08:58.216Z,101685.28
2024-05-09T01:11:38.722Z,101686.19
2024-05-09T01:14:09.514Z,101679.19
2024-05-09T01:16:40.217Z,101685.31
2024-05-09T01:19:18.109Z,101678.34
2024-05-09T01:21:48.635Z,101680.09
2024-05-09T01:24:21.631Z,101682.75
2024-05-09T01:26:52.378Z,101685.38
2024-05-09T01:29:22.855Z,101680.13
2024-05-09T01:31:54.462Z,101681.03
2024-05-09T01:34:25.013Z,101675.75
2024-05-09T01:36:55.722Z,101678.41
2024-05-09T01:39:28.735Z,101676.59
2024-05-09T01:41:59.201Z,101674.84
2024-05-09T01:44:29.784Z,101670.47
2024-05-09T01:47:00.293Z,101668.69
2024-05-09T01:49:31.302Z,101673.91
2024-05-09T01:52:01.823Z,101669.47
2024-05-09T01:54:35.002Z,101664.16
2024-05-09T01:57:05.513Z,101663.25
2024-05-09T01:59:36.057Z,101669.31
2024-05-09T02:02:06.990Z,101671.94
2024-05-09T02:04:37.645Z,101671.91
2024-05-09T02:07:08.729Z,101678.91
2024-05-09T02:09:41.900Z,101678.03
2024-05-09T02:12:12.746Z,101690.28
2024-05-09T02:14:43.406Z,101686.81
2024-05-09T02:17:13.994Z,101686.81
2024-05-09T02:19:44.581Z,101691.19
2024-05-09T02:22:15.035Z,101690.31
2024-05-09T02:24:48.108Z,101688.56
2024-05-09T02:27:18.576Z,101688.59
2024-05-09T02:29:49.001Z,101683.34
2024-05-09T02:32:19.638Z,101686.88
2024-05-09T02:34:50.142Z,101687.72
2024-05-09T02:37:17.978Z,101688.63
2024-05-09T02:39:51.059Z,101687.75
2024-05-09T02:42:18.923Z,101686.91
2024-05-09T02:44:49.305Z,101690.34
2024-05-09T02:47:17.406Z,101689.47
2024-05-09T02:49:48.000Z,101685.97
2024-05-09T02:52:18.677Z,101681.59
2024-05-09T02:54:52.245Z,101676.34
2024-05-09T02:57:20.128Z,101678.97
2024-05-09T02:59:51.168Z,101683.31
2024-05-09T03:02:19.103Z,101678.06
2024-05-09T03:04:49.752Z,101686.81
2024-05-09T03:07:19.718Z,101685.91
2024-05-09T03:09:53.204Z,101681.53
2024-05-09T03:12:21.054Z,101689.41
2024-05-09T03:14:53.494Z,101683.28
2024-05-09T03:17:23.581Z,101681.56
2024-05-09T03:19:54.054Z,101682.44
2024-05-09T03:22:21.547Z,101679.84
2024-05-09T03:24:54.695Z,101683.41
2024-05-09T03:27:24.802Z,101685.19
2024-05-09T03:29:55.204Z,101684.34
2024-05-09T03:32:23.152Z,101687.03
2024-05-09T03:34:53.620Z,101688.78
2024-05-09T03:37:24.112Z,101686.19
2024-05-09T03:39:57.194Z,101674.00
2024-05-09T03:42:27.671Z,101682.78
2024-05-09T03:44:55.423Z,101685.41
2024-05-09T03:47:26.277Z,101678.47
2024-05-09T03:49:54.226Z,101687.22
2024-05-09T03:52:24.581Z,101683.75
2024-05-09T03:54:55.608Z,101680.28
2024-05-09T03:57:26.006Z,101687.31
2024-05-09T03:59:53.828Z,101688.19
2024-05-09T04:02:24.264Z,101685.59
2024-05-09T04:04:52.274Z,101692.56
2024-05-09T04:07:22.453Z,101697.84
2024-05-09T04:09:50.272Z,101695.22
2024-05-09T04:12:23.352Z,101689.09
2024-05-09T04:14:51.304Z,101691.72
2024-05-09T04:17:21.763Z,101682.13
2024-05-09T04:19:49.617Z,101703.09
2024-05-09T04:22:20.025Z,101703.09
2024-05-09T04:24:48.273Z,101697.84
2024-05-09T04:27:18.642Z,101697.84
2024-05-09T04:29:49.090Z,101699.59
2024-05-09T04:32:19.695Z,101703.94
2024-05-09T04:34:47.543Z,101703.06
2024-05-09T04:37:18.017Z,101710.03
2024-05-09T04:39:45.815Z,101709.16
2024-05-09T04:42:16.191Z,101706.53
2024-05-09T04:44:44.087Z,101712.66
2024-05-09T04:47:17.245Z,101706.50
2024-05-09T04:49:46.611Z,101710.00
2024-05-09T04:52:18.757Z,101717.03
2024-05-09T04:54:46.665Z,101721.38
2024-05-09T04:57:17.302Z,101705.63
2024-05-09T04:59:45.117Z,101705.59
2024-05-09T05:02:18.241Z,101711.69
2024-05-09T05:04:46.227Z,101708.16
2024-05-09T05:07:16.671Z,101714.25
2024-05-09T05:09:44.527Z,101723.84
2024-05-09T05:15:57.095Z,101718.56
2024-05-09T05:18:29.338Z,101722.03
2024-05-09T05:21:00.794Z,101714.13
2024-05-09T05:23:28.405Z,101722.84
2024-05-09T05:25:58.906Z,101728.06
2024-05-09T05:28:26.801Z,101730.69
2024-05-09T05:30:57.200Z,101728.88
2024-05-09T05:33:27.829Z,101734.97
2024-05-09T05:35:58.522Z,101727.94
2024-05-09T05:38:28.912Z,101734.91
2024-05-09T05:40:56.966Z,101739.22
2024-05-09T05:43:27.587Z,101732.19
2024-05-09T05:45:55.663Z,101728.69
2024-05-09T05:48:26.240Z,101736.50
2024-05-09T05:50:56.884Z,101732.97
2024-05-09T05:53:29.871Z,101733.81
2024-05-09T05:55:57.853Z,101736.38
2024-05-09T05:58:28.489Z,101738.06
2024-05-09T06:00:56.673Z,101738.88
2024-05-09T06:03:28.650Z,101740.56
2024-05-09T06:06:04.501Z,101737.00
2024-05-09T06:08:34.989Z,101739.56
2024-05-09T06:11:03.993Z,101741.25
2024-05-09T06:13:34.430Z,101746.44
2024-05-09T06:16:04.899Z,101742.84
2024-05-09T06:18:35.626Z,101748.88
2024-05-09T06:21:06.359Z,101741.88
2024-05-09T06:23:36.972Z,101753.19
2024-05-09T06:26:05.656Z,101737.34
2024-05-09T06:28:38.117Z,101741.63
2024-05-09T06:31:06.116Z,101739.78
2024-05-09T06:33:36.843Z,101735.28
2024-05-09T06:36:08.520Z,101737.78
2024-05-09T06:38:39.216Z,101736.78
2024-05-09T06:41:07.111Z,101737.56
2024-05-09T06:43:37.886Z,101740.97
2024-05-09T06:46:05.931Z,101734.72
2024-05-09T06:48:36.428Z,101739.84
2024-05-09T06:51:04.850Z,101737.94
2024-05-09T06:53:38.231Z,101731.66
2024-05-09T06:56:07.050Z,101731.50
2024-05-09T06:58:37.659Z,101733.16
2024-05-09T07:01:06.595Z,101736.50
2024-05-09T07:03:37.147Z,101738.97
2024-05-09T07:06:05.524Z,101737.97
2024-05-09T07:08:38.803Z,101732.50
2024-05-09T07:11:06.807Z,101735.81
2024-05-09T07:13:37.261Z,101737.31
2024-05-09T07:16:05.465Z,101742.22
2024-05-09T07:18:36.188Z,101738.09
2024-05-09T07:21:04.408Z,101736.00
2024-05-09T07:23:37.638Z,101734.31
2024-05-09T07:26:05.908Z,101726.94
2024-05-09T07:28:36.378Z,101717.34
2024-05-09T07:31:04.486Z,101710.63
2024-05-09T07:33:35.066Z,101708.19
2024-05-09T07:36:03.440Z,101698.31
2024-05-09T07:38:34.004Z,101699.81
2024-05-09T07:41:04.701Z,101695.78
2024-05-09T07:43:35.217Z,101679.69
2024-05-09T07:46:51.893Z,101688.31
2024-05-09T07:54:00.619Z,101693.97
2024-05-09T07:56:32.186Z,101688.34
2024-05-09T07:59:02.972Z,101688.53
2024-05-09T08:01:33.618Z,101685.19
2024-05-09T08:04:01.576Z,101691.78
2024-05-09T08:06:32.385Z,101697.25
2024-05-09T08:09:05.157Z,101694.63
2024-05-09T08:11:40.720Z,101695.22
2024-05-09T08:14:08.584Z,101688.16
2024-05-09T08:16:38.958Z,101685.66
2024-05-09T08:19:06.949Z,101676.28
2024-05-09T08:21:37.478Z,101681.16
2024-05-09T08:24:05.617Z,101678.38
2024-05-09T08:26:36.096Z,101681.03
2024-05-09T08:29:06.536Z,101674.59
2024-05-09T08:31:41.188Z,101670.56
2024-05-09T08:34:09.324Z,101669.53
2024-05-09T08:36:40.815Z,101671.34
2024-05-09T08:39:08.726Z,101662.56
2024-05-09T08:41:44.672Z,101664.09
2024-05-09T08:44:15.266Z,101656.19
2024-05-09T08:46:48.638Z,101656.38
2024-05-09T08:49:16.779Z,101655.13
2024-05-09T08:51:47.586Z,101650.47
2024-05-09T08:54:15.503Z,101655.50
2024-05-09T08:56:50.888Z,101650.31
2024-05-09T08:59:28.076Z,101653.56
2024-05-09T09:01:59.132Z,101653.56
2024-05-09T09:04:27.716Z,101641.06
2024-05-09T09:07:00.385Z,101640.88
2024-05-09T09:09:30.208Z,101643.59
2024-05-09T09:12:00.688Z,101636.84
2024-05-09T09:14:31.200Z,101642.63
2024-05-09T09:17:01.678Z,101637.00
2024-05-09T09:19:29.511Z,101636.59
2024-05-09T09:21:59.973Z,101631.28
2024-05-09T09:24:27.943Z,101630.06
2024-05-09T09:27:01.241Z,101627.25
2024-05-09T09:29:32.398Z,101627.78
2024-05-09T09:32:03.964Z,101637.50
2024-05-09T09:34:32.488Z,101641.66
2024-05-09T09:37:07.736Z,101643.97
2024-05-09T09:39:37.329Z,101633.97
2024-05-09T09:42:08.495Z,101631.59
2024-05-09T09:44:42.190Z,101632.94
2024-05-09T09:47:13.758Z,101623.28
2024-05-09T09:49:42.572Z,101623.47
2024-05-09T09:52:14.392Z,101622.94
2024-05-09T09:54:44.175Z,101620.91
2024-05-09T09:57:14.656Z,101620.00
2024-05-09T09:59:50.383Z,101615.91
2024-05-09T10:02:21.283Z,101625.50
2024-05-09T10:04:49.584Z,101615.94
2024-05-09T10:07:23.428Z,101624.03
2024-05-09T10:09:56.203Z,101620.84
2024-05-09T10:12:27.246Z,101614.63
2024-05-09T10:14:57.717Z,101616.72
2024-05-09T10:17:28.205Z,101621.50
2024-05-09T10:20:11.895Z,101616.22
2024-05-09T10:22:51.267Z,101620.78
2024-05-09T10:25:19.420Z,101621.47
2024-05-09T10:27:58.187Z,101607.16
2024-05-09T10:30:34.247Z,101606.31
2024-05-09T10:33:12.510Z,101612.44
2024-05-09T10:35:51.140Z,101603.22
2024-05-09T10:38:22.207Z,101602.44
2024-05-09T10:40:56.462Z,101598.47
2024-05-09T10:43:27.714Z,101595.63
2024-05-09T10:45:58.260Z,101585.41
2024-05-09T10:48:29.825Z,101579.69
2024-05-09T10:50:58.295Z,101588.59
2024-05-09T10:53:28.727Z,101582.84
2024-05-09T10:55:57.168Z,101590.00
2024-05-09T10:58:28.055Z,101586.41
2024-05-09T11:01:00.712Z,101577.44
2024-05-09T11:03:32.916Z,101570.19
2024-05-09T11:06:01.470Z,101574.31
2024-05-09T11:08:33.245Z,101572.34
2024-05-09T11:11:03.007Z,101569.31
2024-05-09T11:13:34.724Z,101572.66
2024-05-09T11:16:06.934Z,101561.75
2024-05-09T11:18:39.218Z,101567.56
2024-05-09T11:21:13.770Z,101566.25
2024-05-09T11:23:44.540Z,101569.41
2024-05-09T11:26:15.247Z,101562.78
2024-05-09T11:28:48.300Z,101553.00
2024-05-09T11:31:19.156Z,101567.66
2024-05-09T11:33:50.037Z,101551.09
2024-05-09T11:36:18.025Z,101552.31
2024-05-09T11:38:48.498Z,101555.88
2024-05-09T11:41:18.518Z,101539.50
2024-05-09T11:43:49.041Z,101546.81
2024-05-09T11:46:19.575Z,101541.06
2024-05-09T11:48:50.090Z,101540.13
2024-05-09T11:51:18.051Z,101538.91
2024-05-09T11:53:48.424Z,101536.28
2024-05-09T11:56:17.645Z,101533.56
2024-05-09T11:58:48.060Z,101542.38
2024-05-09T12:01:20.860Z,101531.19
2024-05-09T12:03:54.620Z,101529.28
2024-05-09T12:06:22.837Z,101521.59
2024-05-09T12:08:53.267Z,101526.38
2024-05-09T12:11:21.189Z,101522.44
2024-05-09T12:13:51.643Z,101520.97
2024-05-09T12:16:22.250Z,101517.34
2024-05-09T12:18:52.864Z,101509.31
2024-05-09T12:21:20.707Z,101504.75
2024-05-09T12:23:51.100Z,101511.16
2024-05-09T12:26:19.034Z,101513.91
2024-05-09T12:28:49.497Z,101503.56
2024-05-09T12:31:17.420Z,101509.50
2024-05-09T12:33:50.604Z,101502.00
2024-05-09T12:36:18.599Z,101499.13
2024-05-09T12:38:50.020Z,101497.28
2024-05-09T12:41:17.879Z,101495.59
2024-05-09T12:43:48.836Z,101494.72
2024-05-09T12:46:16.817Z,101481.28
2024-05-09T12:48:50.119Z,101478.88
2024-05-09T12:51:18.047Z,101482.31
2024-05-09T12:53:48.488Z,101479.25
2024-05-09T12:56:16.284Z,101468.38
2024-05-09T12:58:46.704Z,101475.50
2024-05-09T13:01:14.736Z,101464.75
2024-05-09T13:03:46.288Z,101467.16
2024-05-09T13:06:16.851Z,101462.97
2024-05-09T13:08:47.988Z,101455.31
2024-05-09T13:11:15.937Z,101464.25
2024-05-09T13:13:47.200Z,101461.16
2024-05-09T13:16:15.119Z,101447.13
2024-05-09T13:18:45.643Z,101453.44
2024-05-09T13:21:16.117Z,101444.56
2024-05-09T13:23:46.667Z,101436.63
2024-05-09T13:26:14.469Z,101441.28
2024-05-09T13:28:44.999Z,101435.78
2024-05-09T13:31:12.841Z,101441.19
2024-05-09T13:33:43.362Z,101427.72
2024-05-09T13:36:11.352Z,101427.00
2024-05-09T13:38:44.438Z,101432.91
2024-05-09T13:41:12.353Z,101423.09
2024-05-09T13:43:42.887Z,101421.06
2024-05-09T13:46:10.875Z,101411.22
2024-05-09T13:48:42.114Z,101409.31
2024-05-09T13:51:10.163Z,101404.06
2024-05-09T13:53:43.216Z,101406.34
2024-05-09T13:56:11.933Z,101398.63
2024-05-09T13:58:42.394Z,101402.84
2024-05-09T14:01:10.285Z,101402.56
2024-05-09T14:03:40.935Z,101405.19
2024-05-09T14:06:12.974Z,101399.28
2024-05-09T14:08:46.388Z,101392.97
2024-05-09T14:11:14.292Z,101390.97
2024-05-09T14:13:44.667Z,101382.44
2024-05-09T14:16:12.678Z,101382.84
2024-05-09T14:18:43.358Z,101374.94
2024-05-09T14:21:11.223Z,101373.72
2024-05-09T14:23:41.600Z,101368.06
2024-05-09T14:26:12.328Z,101358.81
2024-05-09T14:28:42.771Z,101358.50
2024-05-09T14:31:10.600Z,101355.19
2024-05-09T14:33:41.184Z,101354.69
2024-05-09T14:36:09.239Z,101348.56
2024-05-09T14:38:39.608Z,101347.13
2024-05-09T14:41:09.378Z,101341.28
2024-05-09T14:43:42.422Z,101341.28
2024-05-09T14:46:10.246Z,101342.53
2024-05-09T14:48:41.065Z,101345.41
2024-05-09T14:51:08.961Z,101337.50
2024-05-09T14:53:39.330Z,101337.63
2024-05-09T14:56:07.802Z,101331.31
2024-05-09T14:58:40.930Z,101321.81
2024-05-09T15:01:08.888Z,101327.56
2024-05-09T15:03:39.591Z,101324.28
2024-05-09T15:06:07.889Z,101320.94
2024-05-09T15:08:38.813Z,101322.84
2024-05-09T15:11:06.871Z,101320.00
2024-05-09T15:13:37.755Z,101307.03
2024-05-09T15:16:08.803Z,101305.97
2024-05-09T15:18:41.364Z,101303.53
2024-05-09T15:21:10.926Z,101295.44
2024-05-09T15:23:41.415Z,101296.66
2024-05-09T15:26:09.300Z,101289.97
2024-05-09T15:28:39.881Z,101299.88
2024-05-09T15:31:10.423Z,101294.13
2024-05-09T15:33:42.634Z,101287.53
2024-05-09T15:36:10.703Z,101280.63
2024-05-09T15:38:41.912Z,101287.38
2024-05-09T15:41:09.768Z,101292.72
2024-05-09T15:43:40.213Z,101289.88
2024-05-09T15:46:10.854Z,101276.97
2024-05-09T15:48:44.633Z,101279.22
2024-05-09T15:51:13.944Z,101277.75
2024-05-09T15:53:44.331Z,101279.13
2024-05-09T15:56:12.327Z,101280.09
2024-05-09T15:58:42.809Z,101268.69
2024-05-09T16:01:15.056Z,101274.03
2024-05-09T16:03:45.850Z,101273.59
2024-05-09T16:06:14.092Z,101270.56
2024-05-09T16:08:44.865Z,101271.19
2024-05-09T16:11:13.192Z,101272.41
2024-05-09T16:13:43.652Z,101268.69
2024-05-09T16:16:14.707Z,101274.63
2024-05-09T16:18:45.474Z,101279.38
2024-05-09T16:21:13.314Z,101283.16
2024-05-09T16:23:43.758Z,101277.91
2024-05-09T16:26:11.862Z,101273.03
2024-05-09T16:28:42.297Z,101271.72
2024-05-09T16:31:12.768Z,101260.56
2024-05-09T16:33:43.290Z,101265.72
2024-05-09T16:36:11.160Z,101262.44
2024-05-09T16:38:43.071Z,101263.69
2024-05-09T16:41:11.010Z,101261.19
2024-05-09T16:43:41.416Z,101254.44
2024-05-09T16:46:09.473Z,101259.84
2024-05-09T16:48:45.724Z,101257.84
2024-05-09T16:51:13.800Z,101255.75
2024-05-09T16:53:44.191Z,101252.03
2024-05-09T16:56:12.563Z,101251.28
2024-05-09T16:58:43.299Z,101263.34
2024-05-09T17:01:13.533Z,101254.09
2024-05-09T17:03:46.872Z,101253.19
2024-05-09T17:06:15.236Z,101249.06
2024-05-09T17:08:45.963Z,101251.91
2024-05-09T17:11:15.462Z,101250.75
2024-05-09T17:13:48.184Z,101249.53
2024-05-09T17:16:21.048Z,101250.03
2024-05-09T17:18:53.928Z,101250.19
2024-05-09T17:21:21.816Z,101249.03
2024-05-09T17:23:54.328Z,101253.84
2024-05-09T17:26:22.558Z,101252.22
2024-05-09T17:28:53.125Z,101252.22
2024-05-09T17:31:21.144Z,101255.44
2024-05-09T17:33:54.400Z,101247.75
2024-05-09T17:36:22.373Z,101250.28
2024-05-09T17:38:52.968Z,101247.31
2024-05-09T17:41:20.771Z,101250.31
2024-05-09T17:43:51.131Z,101252.66
2024-05-09T17:46:19.248Z,101256.47
2024-05-09T17:48:49.826Z,101261.31
2024-05-09T17:51:20.309Z,101254.78
2024-05-09T17:53:51.160Z,101269.38
2024-05-09T17:56:19.169Z,101257.94
2024-05-09T17:58:49.506Z,101260.69
2024-05-09T18:01:17.079Z,101258.75
2024-05-09T18:03:48.553Z,101259.34
2024-05-09T18:06:16.705Z,101259.59
2024-05-09T18:08:49.786Z,101268.56
2024-05-09T18:11:17.728Z,101263.19
2024-05-09T18:13:49.363Z,101262.19
2024-05-09T18:16:18.714Z,101266.25
2024-05-09T18:18:49.564Z,101268.53
2024-05-09T18:21:17.536Z,101269.03
2024-05-09T18:23:52.096Z,101268.72
2024-05-09T18:26:19.891Z,101275.06
2024-05-09T18:28:50.383Z,101263.69
2024-05-09T18:31:18.270Z,101272.84
2024-05-09T18:33:48.790Z,101270.09
2024-05-09T18:36:16.827Z,101287.81
2024-05-09T18:38:49.986Z,101280.59
2024-05-09T18:41:20.335Z,101278.81
2024-05-09T18:43:51.290Z,101273.34
2024-05-09T18:46:19.261Z,101284.88
2024-05-09T18:48:49.850Z,101281.09
2024-05-09T18:51:17.816Z,101280.91
2024-05-09T18:53:52.368Z,101288.47
2024-05-09T18:56:20.190Z,101286.88
2024-05-09T18:58:50.797Z,101289.97
2024-05-09T19:01:18.712Z,101292.34
2024-05-09T19:03:50.379Z,101292.84
2024-05-09T19:06:21.147Z,101296.03
2024-05-09T19:08:56.044Z,101299.16
2024-05-09T19:11:26.684Z,101299.56
2024-05-09T19:13:54.446Z,101303.47
2024-05-09T19:16:24.790Z,101305.66
2024-05-09T19:18:53.985Z,101317.50
2024-05-09T19:21:24.535Z,101312.47
2024-05-09T19:23:55.638Z,101310.03
2024-05-09T19:26:26.784Z,101319.13
2024-05-09T19:28:54.614Z,101321.16
2024-05-09T19:31:25.545Z,101316.84
2024-05-09T19:33:53.548Z,101317.84
2024-05-09T19:36:24.051Z,101317.00
2024-05-09T19:38:54.622Z,101322.38
2024-05-09T19:41:25.284Z,101325.19
2024-05-09T19:43:53.082Z,101320.00
2024-05-09T19:46:23.908Z,101325.47
2024-05-09T19:48:52.031Z,101326.53
2024-05-09T19:51:22.568Z,101328.44
2024-05-09T19:53:50.690Z,101329.53
2024-05-09T19:56:24.161Z,101331.41
2024-05-09T19:58:52.054Z,101332.56
2024-05-09T20:01:22.947Z,101331.84
2024-05-09T20:03:51.252Z,101328.59
2024-05-09T20:06:24.469Z,101328.66
2024-05-09T20:08:57.089Z,101322.78
2024-05-09T20:11:33.738Z,101326.56
2024-05-09T20:14:02.251Z,101339.16
2024-05-09T20:16:32.759Z,101336.72
2024-05-09T20:19:00.829Z,101333.41
2024-05-09T20:21:31.380Z,101340.72
2024-05-09T20:23:59.202Z,101335.69
2024-05-09T20:26:32.224Z,101338.56
2024-05-09T20:29:00.335Z,101337.81
2024-05-09T20:31:30.766Z,101343.28
2024-05-09T20:33:58.557Z,101334.69
2024-05-09T20:36:28.917Z,101340.13
2024-05-09T20:38:56.726Z,101339.47
2024-05-09T20:41:27.670Z,101338.09
2024-05-09T20:44:00.624Z,101339.22
2024-05-09T20:46:31.070Z,101337.78
2024-05-09T20:48:58.963Z,101341.59
2024-05-09T20:51:30.415Z,101335.69
2024-05-09T20:53:58.353Z,101342.25
2024-05-09T20:56:28.726Z,101348.88
2024-05-09T20:58:59.430Z,101341.44
2024-05-09T21:01:29.947Z,101343.66
2024-05-09T21:03:58.052Z,101342.34
2024-05-09T21:06:28.570Z,101340.97
2024-05-09T21:08:58.412Z,101337.75
2024-05-09T21:11:28.787Z,101343.53
2024-05-09T21:13:59.172Z,101344.03
2024-05-09T21:16:29.671Z,101340.91
2024-05-09T21:18:57.480Z,101347.50
2024-05-09T21:21:27.838Z,101346.00
2024-05-09T21:23:55.595Z,101343.59
2024-05-09T21:26:25.954Z,101342.06
2024-05-09T21:28:53.669Z,101344.09
2024-05-09T21:31:26.977Z,101340.72
2024-05-09T21:33:55.049Z,101337.34
2024-05-09T21:36:25.547Z,101341.09
2024-05-09T21:38:53.380Z,101343.00
2024-05-09T21:41:24.665Z,101344.06
2024-05-09T21:43:52.448Z,101336.31
2024-05-09T21:46:25.228Z,101339.06
2024-05-09T21:48:53.322Z,101339.19
2024-05-09T21:51:23.800Z,101337.53
2024-05-09T21:53:51.656Z,101331.66
2024-05-09T21:56:21.999Z,101337.16
2024-05-09T21:58:49.754Z,101336.59
2024-05-09T22:01:20.242Z,101330.59
2024-05-09T22:03:50.808Z,101332.59
2024-05-09T22:06:21.298Z,101338.94
2024-05-09T22:08:48.751Z,101335.66
2024-05-09T22:11:19.355Z,101337.66
2024-05-09T22:13:47.234Z,101338.72
2024-05-09T22:16:17.865Z,101338.00
2024-05-09T22:18:45.718Z,101334.69
2024-05-09T22:21:18.788Z,101335.72
2024-05-09T22:23:46.575Z,101335.00
2024-05-09T22:26:16.943Z,101336.06
2024-05-09T22:28:44.760Z,101333.56
2024-05-09T22:31:15.178Z,101338.06
2024-05-09T22:33:45.466Z,101340.00
2024-05-09T22:36:20.125Z,101337.41
2024-05-09T22:38:47.935Z,101333.06
2024-05-09T22:41:18.308Z,101329.72
2024-05-09T22:43:46.099Z,101341.34
2024-05-09T22:46:16.548Z,101337.94
2024-05-09T22:48:44.499Z,101338.94
2024-05-09T22:51:16.002Z,101339.97
2024-05-09T22:53:46.423Z,101346.31
2024-05-09T22:56:17.943Z,101348.22
2024-05-09T22:58:45.809Z,101347.47
2024-05-09T23:01:18.206Z,101344.91
2024-05-09T23:03:46.773Z,101355.66
2024-05-09T23:06:17.285Z,101351.41
2024-05-09T23:08:47.725Z,101347.09
2024-05-09T23:11:18.229Z,101353.38
2024-05-09T23:13:46.372Z,101347.25
2024-05-09T23:16:16.849Z,101343.78
2024-05-09T23:18:44.803Z,101346.50
2024-05-09T23:21:15.293Z,101342.16
2024-05-09T23:23:43.334Z,101348.44
2024-05-09T23:26:16.348Z,101352.03
2024-05-09T23:28:44.164Z,101345.97
2024-05-09T23:31:14.552Z,101346.06
2024-05-09T23:33:46.500Z,101347.03
2024-05-09T23:36:17.213Z,101339.22
2024-05-09T23:38:44.986Z,101343.69
2024-05-09T23:41:18.202Z,101348.22
2024-05-09T23:43:46.056Z,101346.63
2024-05-09T23:46:16.555Z,101349.34
2024-05-09T23:48:44.478Z,101338.16
2024-05-09T23:51:14.963Z,101340.97
2024-05-09T23:53:45.523Z,101345.56
2024-05-09T23:56:21.513Z,101335.16
2024-05-09T23:58:49.485Z,101337.13
